sensor_id;sensor_type;location;lat;lon;timestamp;pressure;altitude;pressure_sealevel;temperature;humidity
5284;BME280;15377;48.540;9.268;2024-02-16T00:00:46;97348.06;;;9.10;100.00
5284;BME280;15377;48.540;9.268;2024-02-16T00:03:12;97345.34;;;9.10;100.00
5284;BME280;15377;48.540;9.268;2024-02-16T00:05:38;97341.38;;;9.11;100.00
5284;BME280;15377;48.540;9.268;2024-02-16T00:08:04;97344.09;;;9.11;100.00
5284;BME280;15377;48.540;9.268;2024-02-16T00:10:30;97334.22;;;9.05;100.00
5284;BME280;15377;48.540;9.268;2024-02-16T00:12:55;97337.44;;;9.03;100.00
5284;BME280;15377;48.540;9.268;2024-02-16T00:15:21;97333.78;;;8.97;100.00
5284;BME280;15377;48.540;9.268;2024-02-16T00:17:47;97345.84;;;8.91;100.00
5284;BME280;15377;48.540;9.268;2024-02-16T00:20:13;97347.53;;;8.88;100.00
5284;BME280;15377;48.540;9.268;2024-02-16T00:22:39;97339.59;;;8.90;100.00
5284;BME280;15377;48.540;9.268;2024-02-16T00:25:04;97347.09;;;8.90;100.00
5284;BME280;15377;48.540;9.268;2024-02-16T00:27:30;97326.34;;;8.80;100.00
5284;BME280;15377;48.540;9.268;2024-02-16T00:29:55;97344.66;;;8.83;100.00
5284;BME280;15377;48.540;9.268;2024-02-16T00:32:20;97342.38;;;8.81;100.00
5284;BME280;15377;48.540;9.268;2024-02-16T00:34:48;97338.41;;;8.82;100.00
5284;BME280;15377;48.540;9.268;2024-02-16T00:37:17;97336.59;;;8.79;100.00
5284;BME280;15377;48.540;9.268;2024-02-16T00:39:42;97339.91;;;8.83;100.00
5284;BME280;15377;48.540;9.268;2024-02-16T00:42:08;97333.22;;;8.75;100.00
5284;BME280;15377;48.540;9.268;2024-02-16T00:44:33;97331.38;;;8.81;100.00
5284;BME280;15377;48.540;9.268;2024-02-16T00:46:59;97327.13;;;8.80;100.00
5284;BME280;15377;48.540;9.268;2024-02-16T00:49:24;97327.41;;;8.82;100.00
5284;BME280;15377;48.540;9.268;2024-02-16T00:51:50;97334.00;;;8.76;100.00
5284;BME280;15377;48.540;9.268;2024-02-16T00:54:18;97315.41;;;8.71;100.00
5284;BME280;15377;48.540;9.268;2024-02-16T00:56:43;97323.44;;;8.83;100.00
5284;BME280;15377;48.540;9.268;2024-02-16T00:59:08;97315.84;;;8.87;100.00
5284;BME280;15377;48.540;9.268;2024-02-16T01:01:35;97319.47;;;8.84;100.00
5284;BME280;15377;48.540;9.268;2024-02-16T01:04:01;97316.44;;;8.82;100.00
5284;BME280;15377;48.540;9.268;2024-02-16T01:06:27;97313.41;;;8.80;100.00
5284;BME280;15377;48.540;9.268;2024-02-16T01:08:53;97316.13;;;8.89;100.00
5284;BME280;15377;48.540;9.268;2024-02-16T01:11:18;97319.75;;;8.95;100.00
5284;BME280;15377;48.540;9.268;2024-02-16T01:13:47;97318.09;;;8.98;100.00
5284;BME280;15377;48.540;9.268;2024-02-16T01:16:12;97317.03;;;8.95;100.00
5284;BME280;15377;48.540;9.268;2024-02-16T01:18:39;97316.72;;;8.93;100.00
5284;BME280;15377;48.540;9.268;2024-02-16T01:21:05;97315.78;;;8.96;100.00
5284;BME280;15377;48.540;9.268;2024-02-16T01:23:30;97319.75;;;8.95;100.00
5284;BME280;15377;48.540;9.268;2024-02-16T01:25:55;97319.16;;;8.91;100.00
5284;BME280;15377;48.540;9.268;2024-02-16T01:28:21;97316.91;;;8.90;100.00
5284;BME280;15377;48.540;9.268;2024-02-16T01:30:48;97327.22;;;8.95;100.00
5284;BME280;15377;48.540;9.268;2024-02-16T01:33:13;97326.78;;;8.96;100.00
5284;BME280;15377;48.540;9.268;2024-02-16T01:35:39;97307.44;;;8.91;100.00
5284;BME280;15377;48.540;9.268;2024-02-16T01:38:04;97320.50;;;9.05;100.00
5284;BME280;15377;48.540;9.268;2024-02-16T01:40:30;97316.66;;;9.11;100.00
5284;BME280;15377;48.540;9.268;2024-02-16T01:42:57;97308.47;;;9.02;100.00
5284;BME280;15377;48.540;9.268;2024-02-16T01:45:22;97313.31;;;9.07;100.00
5284;BME280;15377;48.540;9.268;2024-02-16T01:47:49;97313.94;;;9.02;100.00
5284;BME280;15377;48.540;9.268;2024-02-16T01:50:16;97320.06;;;8.97;100.00
5284;BME280;15377;48.540;9.268;2024-02-16T01:52:43;97322.06;;;8.88;100.00
5284;BME280;15377;48.540;9.268;2024-02-16T01:55:09;97332.00;;;8.85;100.00
5284;BME280;15377;48.540;9.268;2024-02-16T01:57:36;97325.56;;;8.88;100.00
5284;BME280;15377;48.540;9.268;2024-02-16T02:00:01;97314.28;;;8.95;100.00
5284;BME280;15377;48.540;9.268;2024-02-16T02:02:28;97319.44;;;9.02;100.00
5284;BME280;15377;48.540;9.268;2024-02-16T02:04:53;97311.16;;;9.11;100.00
5284;BME280;15377;48.540;9.268;2024-02-16T02:07:19;97305.50;;;9.15;100.00
5284;BME280;15377;48.540;9.268;2024-02-16T02:09:49;97297.47;;;9.02;100.00
5284;BME280;15377;48.540;9.268;2024-02-16T02:12:15;97307.34;;;9.09;100.00
5284;BME280;15377;48.540;9.268;2024-02-16T02:14:40;97298.34;;;9.17;100.00
5284;BME280;15377;48.540;9.268;2024-02-16T02:17:07;97298.63;;;9.19;100.00
5284;BME280;15377;48.540;9.268;2024-02-16T02:19:32;97309.72;;;9.25;100.00
5284;BME280;15377;48.540;9.268;2024-02-16T02:21:58;97296.94;;;9.22;100.00
5284;BME280;15377;48.540;9.268;2024-02-16T02:24:23;97291.84;;;9.29;100.00
5284;BME280;15377;48.540;9.268;2024-02-16T02:26:48;97300.25;;;9.26;100.00
5284;BME280;15377;48.540;9.268;2024-02-16T02:29:14;97294.47;;;9.24;100.00
5284;BME280;15377;48.540;9.268;2024-02-16T02:31:39;97285.41;;;9.09;100.00
5284;BME280;15377;48.540;9.268;2024-02-16T02:34:05;97291.81;;;9.06;100.00
5284;BME280;15377;48.540;9.268;2024-02-16T02:36:31;97281.59;;;9.06;100.00
5284;BME280;15377;48.540;9.268;2024-02-16T02:38:58;97285.41;;;9.09;100.00
5284;BME280;15377;48.540;9.268;2024-02-16T02:41:23;97291.22;;;9.02;100.00
5284;BME280;15377;48.540;9.268;2024-02-16T02:43:48;97280.41;;;8.98;100.00
5284;BME280;15377;48.540;9.268;2024-02-16T02:46:17;97281.34;;;8.95;100.00
5284;BME280;15377;48.540;9.268;2024-02-16T02:48:43;97279.81;;;8.94;100.00
5284;BME280;15377;48.540;9.268;2024-02-16T02:51:09;97285.31;;;8.94;100.00
5284;BME280;15377;48.540;9.268;2024-02-16T02:53:35;97275.91;;;8.86;100.00
5284;BME280;15377;48.540;9.268;2024-02-16T02:56:00;97278.31;;;8.93;100.00
5284;BME280;15377;48.540;9.268;2024-02-16T02:58:26;97280.13;;;8.96;100.00
5284;BME280;15377;48.540;9.268;2024-02-16T03:00:51;97270.66;;;8.97;100.00
5284;BME280;15377;48.540;9.268;2024-02-16T03:03:16;97274.91;;;8.98;100.00
5284;BME280;15377;48.540;9.268;2024-02-16T03:05:42;97284.50;;;9.03;100.00
5284;BME280;15377;48.540;9.268;2024-02-16T03:08:07;97274.00;;;9.01;100.00
5284;BME280;15377;48.540;9.268;2024-02-16T03:10:33;97286.91;;;9.10;100.00
5284;BME280;15377;48.540;9.268;2024-02-16T03:13:01;97286.19;;;9.09;100.00
5284;BME280;15377;48.540;9.268;2024-02-16T03:15:26;97272.47;;;9.00;100.00
5284;BME280;15377;48.540;9.268;2024-02-16T03:17:51;97282.94;;;9.11;100.00
5284;BME280;15377;48.540;9.268;2024-02-16T03:20:17;97275.94;;;9.10;100.00
5284;BME280;15377;48.540;9.268;2024-02-16T03:22:42;97278.88;;;8.97;100.00
5284;BME280;15377;48.540;9.268;2024-02-16T03:25:08;97283.53;;;8.82;100.00
5284;BME280;15377;48.540;9.268;2024-02-16T03:27:33;97278.69;;;8.68;100.00
5284;BME280;15377;48.540;9.268;2024-02-16T03:29:59;97269.88;;;8.64;100.00
5284;BME280;15377;48.540;9.268;2024-02-16T03:32:24;97268.03;;;8.61;100.00
5284;BME280;15377;48.540;9.268;2024-02-16T03:34:50;97265.91;;;8.65;100.00
5284;BME280;15377;48.540;9.268;2024-02-16T03:37:15;97281.13;;;8.66;100.00
5284;BME280;15377;48.540;9.268;2024-02-16T03:39:41;97273.97;;;8.69;100.00
5284;BME280;15377;48.540;9.268;2024-02-16T03:42:06;97265.91;;;8.65;100.00
5284;BME280;15377;48.540;9.268;2024-02-16T03:44:32;97273.97;;;8.69;100.00
5284;BME280;15377;48.540;9.268;2024-02-16T03:46:57;97278.69;;;8.68;100.00
5284;BME280;15377;48.540;9.268;2024-02-16T03:49:22;97270.44;;;8.68;100.00
5284;BME280;15377;48.540;9.268;2024-02-16T03:51:48;97276.25;;;8.70;100.00
5284;BME280;15377;48.540;9.268;2024-02-16T03:54:13;97275.31;;;8.73;100.00
5284;BME280;15377;48.540;9.268;2024-02-16T03:56:38;97268.91;;;8.76;100.00
5284;BME280;15377;48.540;9.268;2024-02-16T03:59:04;97278.31;;;8.93;100.00
5284;BME280;15377;48.540;9.268;2024-02-16T04:01:31;97286.06;;;8.95;100.00
5284;BME280;15377;48.540;9.268;2024-02-16T04:03:56;97286.84;;;8.95;100.00
5284;BME280;15377;48.540;9.268;2024-02-16T04:06:21;97286.22;;;8.91;100.00
5284;BME280;15377;48.540;9.268;2024-02-16T04:08:47;97280.91;;;8.88;100.00
5284;BME280;15377;48.540;9.268;2024-02-16T04:11:14;97283.81;;;8.84;100.00
5284;BME280;15377;48.540;9.268;2024-02-16T04:13:40;97281.06;;;8.84;100.00
5284;BME280;15377;48.540;9.268;2024-02-16T04:16:06;97285.34;;;8.85;100.00
5284;BME280;15377;48.540;9.268;2024-02-16T04:18:31;97288.84;;;8.86;100.00
5284;BME280;15377;48.540;9.268;2024-02-16T04:20:56;97288.97;;;8.91;100.00
5284;BME280;15377;48.540;9.268;2024-02-16T04:23:22;97290.63;;;8.98;100.00
5284;BME280;15377;48.540;9.268;2024-02-16T04:25:47;97301.78;;;8.94;100.00
5284;BME280;15377;48.540;9.268;2024-02-16T04:28:12;97302.69;;;8.91;100.00
5284;BME280;15377;48.540;9.268;2024-02-16T04:30:38;97293.41;;;8.89;100.00
5284;BME280;15377;48.540;9.268;2024-02-16T04:33:04;97304.56;;;8.85;100.00
5284;BME280;15377;48.540;9.268;2024-02-16T04:35:29;97302.59;;;8.77;100.00
5284;BME280;15377;48.540;9.268;2024-02-16T04:37:55;97311.44;;;8.72;100.00
5284;BME280;15377;48.540;9.268;2024-02-16T04:40:20;97312.81;;;8.67;100.00
5284;BME280;15377;48.540;9.268;2024-02-16T04:42:45;97303.41;;;8.59;100.00
5284;BME280;15377;48.540;9.268;2024-02-16T04:45:12;97301.59;;;8.47;100.00
5284;BME280;15377;48.540;9.268;2024-02-16T04:47:38;97309.84;;;8.47;100.00
5284;BME280;15377;48.540;9.268;2024-02-16T04:50:05;97308.78;;;8.45;100.00
5284;BME280;15377;48.540;9.268;2024-02-16T04:52:30;97320.03;;;8.38;100.00
5284;BME280;15377;48.540;9.268;2024-02-16T04:54:56;97310.75;;;8.35;100.00
5284;BME280;15377;48.540;9.268;2024-02-16T04:57:21;97306.78;;;8.36;100.00
5284;BME280;15377;48.540;9.268;2024-02-16T04:59:47;97301.59;;;8.47;100.00
5284;BME280;15377;48.540;9.268;2024-02-16T05:02:12;97310.72;;;8.53;100.00
5284;BME280;15377;48.540;9.268;2024-02-16T05:04:38;97308.59;;;8.57;100.00
5284;BME280;15377;48.540;9.268;2024-02-16T05:07:04;97309.19;;;8.61;100.00
5284;BME280;15377;48.540;9.268;2024-02-16T05:09:32;97310.25;;;8.64;100.00
5284;BME280;15377;48.540;9.268;2024-02-16T05:11:57;97302.94;;;8.61;100.00
5284;BME280;15377;48.540;9.268;2024-02-16T05:14:23;97314.06;;;8.66;100.00
5284;BME280;15377;48.540;9.268;2024-02-16T05:16:49;97310.09;;;8.67;100.00
5284;BME280;15377;48.540;9.268;2024-02-16T05:19:15;97304.31;;;8.65;100.00
5284;BME280;15377;48.540;9.268;2024-02-16T05:21:41;97312.84;;;8.58;100.00
5284;BME280;15377;48.540;9.268;2024-02-16T05:24:06;97319.25;;;8.55;100.00
5284;BME280;15377;48.540;9.268;2024-02-16T05:26:31;97313.78;;;8.55;100.00
5284;BME280;15377;48.540;9.268;2024-02-16T05:28:57;97312.69;;;8.62;100.00
5284;BME280;15377;48.540;9.268;2024-02-16T05:31:22;97307.66;;;8.60;100.00
5284;BME280;15377;48.540;9.268;2024-02-16T05:33:49;97312.50;;;8.74;100.00
5284;BME280;15377;48.540;9.268;2024-02-16T05:36:22;97312.19;;;8.81;100.00
5284;BME280;15377;48.540;9.268;2024-02-16T05:38:50;97327.38;;;8.91;100.00
5284;BME280;15377;48.540;9.268;2024-02-16T05:41:16;97322.97;;;8.94;100.00
5284;BME280;15377;48.540;9.268;2024-02-16T05:43:43;97332.25;;;8.96;100.00
5284;BME280;15377;48.540;9.268;2024-02-16T05:46:16;97329.38;;;8.91;100.00
5284;BME280;15377;48.540;9.268;2024-02-16T05:48:42;97331.38;;;8.81;100.00
5284;BME280;15377;48.540;9.268;2024-02-16T05:51:08;97333.06;;;8.79;100.00
5284;BME280;15377;48.540;9.268;2024-02-16T05:53:34;97335.53;;;8.77;100.00
5284;BME280;15377;48.540;9.268;2024-02-16T05:55:59;97339.19;;;8.74;100.00
5284;BME280;15377;48.540;9.268;2024-02-16T05:58:25;97337.34;;;8.71;100.00
5284;BME280;15377;48.540;9.268;2024-02-16T06:00:51;97334.16;;;8.72;100.00
5284;BME280;15377;48.540;9.268;2024-02-16T06:03:16;97340.09;;;8.71;100.00
5284;BME280;15377;48.540;9.268;2024-02-16T06:05:42;97352.91;;;8.74;100.00
5284;BME280;15377;48.540;9.268;2024-02-16T06:08:10;97350.88;;;8.83;100.00
5284;BME280;15377;48.540;9.268;2024-02-16T06:10:35;97337.00;;;8.87;100.00
5284;BME280;15377;48.540;9.268;2024-02-16T06:13:01;97348.44;;;8.94;100.00
5284;BME280;15377;48.540;9.268;2024-02-16T06:15:26;97350.53;;;8.99;100.00
5284;BME280;15377;48.540;9.268;2024-02-16T06:17:52;97368.22;;;8.98;100.00
5284;BME280;15377;48.540;9.268;2024-02-16T06:20:18;97354.66;;;8.95;100.00
5284;BME280;15377;48.540;9.268;2024-02-16T06:22:43;97364.00;;;8.88;100.00
5284;BME280;15377;48.540;9.268;2024-02-16T06:25:09;97367.34;;;8.83;100.00
5284;BME280;15377;48.540;9.268;2024-02-16T06:27:35;97369.22;;;8.77;100.00
5284;BME280;15377;48.540;9.268;2024-02-16T06:30:00;97356.00;;;8.58;100.00
5284;BME280;15377;48.540;9.268;2024-02-16T06:32:26;97376.22;;;8.60;100.00
5284;BME280;15377;48.540;9.268;2024-02-16T06:34:53;97378.09;;;8.54;100.00
5284;BME280;15377;48.540;9.268;2024-02-16T06:37:18;97380.81;;;8.45;100.00
5284;BME280;15377;48.540;9.268;2024-02-16T06:39:44;97382.03;;;8.35;100.00
5284;BME280;15377;48.540;9.268;2024-02-16T06:42:10;97383.13;;;8.29;100.00
5284;BME280;15377;48.540;9.268;2024-02-16T06:44:38;97387.22;;;8.24;100.00
5284;BME280;15377;48.540;9.268;2024-02-16T06:47:04;97385.38;;;8.21;100.00
5284;BME280;15377;48.540;9.268;2024-02-16T06:49:29;97393.31;;;8.19;100.00
5284;BME280;15377;48.540;9.268;2024-02-16T06:51:54;97389.59;;;8.13;100.00
5284;BME280;15377;48.540;9.268;2024-02-16T06:54:20;97393.91;;;8.14;100.00
5284;BME280;15377;48.540;9.268;2024-02-16T06:56:45;97396.63;;;8.14;100.00
5284;BME280;15377;48.540;9.268;2024-02-16T06:59:11;97408.19;;;8.18;100.00
5284;BME280;15377;48.540;9.268;2024-02-16T07:01:36;97409.00;;;8.19;100.00
5284;BME280;15377;48.540;9.268;2024-02-16T07:04:01;97387.50;;;8.17;100.00
5284;BME280;15377;48.540;9.268;2024-02-16T07:06:27;97400.94;;;8.33;100.00
5284;BME280;15377;48.540;9.268;2024-02-16T07:08:52;97401.06;;;8.39;100.00
5284;BME280;15377;48.540;9.268;2024-02-16T07:11:17;97407.34;;;8.48;100.00
5284;BME280;15377;48.540;9.268;2024-02-16T07:13:46;97403.06;;;8.56;100.00
5284;BME280;15377;48.540;9.268;2024-02-16T07:16:11;97396.06;;;8.55;100.00
5284;BME280;15377;48.540;9.268;2024-02-16T07:18:37;97405.81;;;8.47;100.00
5284;BME280;15377;48.540;9.268;2024-02-16T07:21:02;97414.94;;;8.35;100.00
5284;BME280;15377;48.540;9.268;2024-02-16T07:23:28;97404.75;;;8.36;100.00
5284;BME280;15377;48.540;9.268;2024-02-16T07:25:54;97400.63;;;8.40;100.00
5284;BME280;15377;48.540;9.268;2024-02-16T07:28:24;97414.03;;;8.56;100.00
5284;BME280;15377;48.540;9.268;2024-02-16T07:30:51;97404.88;;;8.68;100.00
5284;BME280;15377;48.540;9.268;2024-02-16T07:33:16;97403.81;;;8.75;100.00
5284;BME280;15377;48.540;9.268;2024-02-16T07:35:42;97415.53;;;8.93;100.00
5284;BME280;15377;48.540;9.268;2024-02-16T07:38:09;97415.19;;;9.09;100.00
5284;BME280;15377;48.540;9.268;2024-02-16T07:40:34;97407.06;;;9.24;100.00
5284;BME280;15377;48.540;9.268;2024-02-16T07:43:00;97410.38;;;9.28;100.00
5284;BME280;15377;48.540;9.268;2024-02-16T07:45:25;97404.44;;;9.29;100.00
5284;BME280;15377;48.540;9.268;2024-02-16T07:47:51;97423.03;;;9.34;100.00
5284;BME280;15377;48.540;9.268;2024-02-16T07:50:20;97422.13;;;9.28;100.00
5284;BME280;15377;48.540;9.268;2024-02-16T07:52:46;97422.75;;;9.23;100.00
5284;BME280;15377;48.540;9.268;2024-02-16T07:55:12;97424.28;;;9.24;100.00
5284;BME280;15377;48.540;9.268;2024-02-16T07:57:37;97432.06;;;9.26;100.00
5284;BME280;15377;48.540;9.268;2024-02-16T08:00:06;97430.22;;;9.32;100.00
5284;BME280;15377;48.540;9.268;2024-02-16T08:02:32;97432.19;;;9.40;100.00
5284;BME280;15377;48.540;9.268;2024-02-16T08:04:58;97431.81;;;9.47;100.00
5284;BME280;15377;48.540;9.268;2024-02-16T08:07:24;97433.03;;;9.55;100.00
5284;BME280;15377;48.540;9.268;2024-02-16T08:09:49;97429.53;;;9.55;100.00
5284;BME280;15377;48.540;9.268;2024-02-16T08:12:16;97426.31;;;9.56;100.00
5284;BME280;15377;48.540;9.268;2024-02-16T08:14:42;97435.91;;;9.61;100.00
5284;BME280;15377;48.540;9.268;2024-02-16T08:17:08;97436.50;;;9.65;100.00
5284;BME280;15377;48.540;9.268;2024-02-16T08:19:36;97438.78;;;9.66;100.00
5284;BME280;15377;48.540;9.268;2024-02-16T08:22:06;97441.81;;;9.68;100.00
5284;BME280;15377;48.540;9.268;2024-02-16T08:24:35;97435.38;;;9.71;100.00
5284;BME280;15377;48.540;9.268;2024-02-16T08:27:01;97444.53;;;9.77;100.00
5284;BME280;15377;48.540;9.268;2024-02-16T08:29:27;97449.66;;;9.93;100.00
5284;BME280;15377;48.540;9.268;2024-02-16T08:31:54;97449.41;;;10.15;100.00
5284;BME280;15377;48.540;9.268;2024-02-16T08:34:19;97452.28;;;10.44;100.00
5284;BME280;15377;48.540;9.268;2024-02-16T08:36:48;97452.25;;;10.67;100.00
5284;BME280;15377;48.540;9.268;2024-02-16T08:39:15;97451.81;;;10.83;100.00
5284;BME280;15377;48.540;9.268;2024-02-16T08:41:41;97455.34;;;10.98;100.00
5284;BME280;15377;48.540;9.268;2024-02-16T08:44:07;97453.34;;;11.13;100.00
5284;BME280;15377;48.540;9.268;2024-02-16T08:46:38;97457.38;;;11.41;100.00
5284;BME280;15377;48.540;9.268;2024-02-16T08:49:04;97465.66;;;11.70;100.00
5284;BME280;15377;48.540;9.268;2024-02-16T08:51:32;97456.03;;;12.14;100.00
5284;BME280;15377;48.540;9.268;2024-02-16T08:53:57;97457.63;;;12.61;100.00
5284;BME280;15377;48.540;9.268;2024-02-16T08:56:23;97459.84;;;12.97;100.00
5284;BME280;15377;48.540;9.268;2024-02-16T08:58:48;97453.97;;;13.35;100.00
5284;BME280;15377;48.540;9.268;2024-02-16T09:01:14;97464.06;;;13.69;100.00
5284;BME280;15377;48.540;9.268;2024-02-16T09:03:41;97462.56;;;14.41;100.00
5284;BME280;15377;48.540;9.268;2024-02-16T09:06:07;97460.13;;;16.16;100.00
5284;BME280;15377;48.540;9.268;2024-02-16T09:08:32;97465.81;;;18.00;100.00
5284;BME280;15377;48.540;9.268;2024-02-16T09:11:03;97475.81;;;19.47;96.68
5284;BME280;15377;48.540;9.268;2024-02-16T09:13:33;97458.72;;;20.32;84.83
5284;BME280;15377;48.540;9.268;2024-02-16T09:15:59;97471.22;;;20.96;82.21
5284;BME280;15377;48.540;9.268;2024-02-16T09:18:24;97475.25;;;21.34;79.01
5284;BME280;15377;48.540;9.268;2024-02-16T09:20:49;97475.03;;;21.45;72.23
5284;BME280;15377;48.540;9.268;2024-02-16T09:23:15;97479.56;;;22.02;68.50
5284;BME280;15377;48.540;9.268;2024-02-16T09:25:40;97476.81;;;21.89;66.15
5284;BME280;15377;48.540;9.268;2024-02-16T09:28:06;97471.47;;;22.19;67.72
5284;BME280;15377;48.540;9.268;2024-02-16T09:30:32;97480.09;;;23.32;64.87
5284;BME280;15377;48.540;9.268;2024-02-16T09:32:58;97483.53;;;24.41;60.03
5284;BME280;15377;48.540;9.268;2024-02-16T09:35:23;97484.50;;;24.66;56.88
5284;BME280;15377;48.540;9.268;2024-02-16T09:37:48;97481.56;;;25.26;54.75
5284;BME280;15377;48.540;9.268;2024-02-16T09:40:14;97482.88;;;25.25;55.29
5284;BME280;15377;48.540;9.268;2024-02-16T09:42:40;97477.69;;;25.86;50.96
5284;BME280;15377;48.540;9.268;2024-02-16T09:45:07;97494.66;;;25.78;48.99
5284;BME280;15377;48.540;9.268;2024-02-16T09:47:33;97482.16;;;25.96;49.55
5284;BME280;15377;48.540;9.268;2024-02-16T09:50:00;97488.75;;;26.23;47.05
5284;BME280;15377;48.540;9.268;2024-02-16T09:52:26;97488.63;;;26.38;45.87
5284;BME280;15377;48.540;9.268;2024-02-16T09:54:51;97501.00;;;26.92;44.89
5284;BME280;15377;48.540;9.268;2024-02-16T09:57:17;97503.75;;;27.16;44.03
5284;BME280;15377;48.540;9.268;2024-02-16T09:59:43;97495.88;;;25.60;41.88
5284;BME280;15377;48.540;9.268;2024-02-16T10:02:08;97494.88;;;25.18;44.08
5284;BME280;15377;48.540;9.268;2024-02-16T10:04:34;97508.09;;;24.33;44.64
5284;BME280;15377;48.540;9.268;2024-02-16T10:07:00;97511.94;;;22.72;46.52
5284;BME280;15377;48.540;9.268;2024-02-16T10:09:26;97517.78;;;22.33;49.75
5284;BME280;15377;48.540;9.268;2024-02-16T10:11:54;97520.56;;;21.92;50.54
5284;BME280;15377;48.540;9.268;2024-02-16T10:14:19;97520.31;;;22.03;51.42
5284;BME280;15377;48.540;9.268;2024-02-16T10:16:48;97516.03;;;21.89;53.87
5284;BME280;15377;48.540;9.268;2024-02-16T10:19:13;97524.38;;;20.83;55.85
5284;BME280;15377;48.540;9.268;2024-02-16T10:21:39;97522.84;;;19.93;59.22
5284;BME280;15377;48.540;9.268;2024-02-16T10:24:08;97530.69;;;19.02;63.00
5284;BME280;15377;48.540;9.268;2024-02-16T10:26:37;97530.00;;;18.72;67.34
5284;BME280;15377;48.540;9.268;2024-02-16T10:29:09;97530.69;;;18.78;73.72
5284;BME280;15377;48.540;9.268;2024-02-16T10:31:34;97534.84;;;18.90;69.38
5284;BME280;15377;48.540;9.268;2024-02-16T10:34:04;97533.69;;;19.04;69.36
5284;BME280;15377;48.540;9.268;2024-02-16T10:36:33;97533.19;;;18.82;70.26
5284;BME280;15377;48.540;9.268;2024-02-16T10:38:59;97521.84;;;18.50;71.05
5284;BME280;15377;48.540;9.268;2024-02-16T10:41:28;97526.44;;;18.48;76.55
5284;BME280;15377;48.540;9.268;2024-02-16T10:43:54;97528.81;;;18.38;76.99
5284;BME280;15377;48.540;9.268;2024-02-16T10:46:20;97529.31;;;18.07;75.66
5284;BME280;15377;48.540;9.268;2024-02-16T10:48:46;97516.28;;;18.21;76.65
5284;BME280;15377;48.540;9.268;2024-02-16T10:51:12;97525.69;;;18.47;78.15
5284;BME280;15377;48.540;9.268;2024-02-16T10:53:40;97537.44;;;18.88;76.30
5284;BME280;15377;48.540;9.268;2024-02-16T10:56:07;97523.38;;;18.75;77.10
5284;BME280;15377;48.540;9.268;2024-02-16T10:58:32;97526.75;;;18.92;76.38
5284;BME280;15377;48.540;9.268;2024-02-16T11:01:08;97518.13;;;18.90;75.02
5284;BME280;15377;48.540;9.268;2024-02-16T11:03:38;97512.47;;;18.53;76.11
5284;BME280;15377;48.540;9.268;2024-02-16T11:06:24;97528.88;;;18.27;79.99
5284;BME280;15377;48.540;9.268;2024-02-16T11:08:50;97506.53;;;18.38;80.42
5284;BME280;15377;48.540;9.268;2024-02-16T11:11:23;97520.94;;;18.66;82.02
5284;BME280;15377;48.540;9.268;2024-02-16T11:13:49;97519.25;;;18.58;81.48
5284;BME280;15377;48.540;9.268;2024-02-16T11:16:17;97517.78;;;18.22;81.53
5284;BME280;15377;48.540;9.268;2024-02-16T11:18:43;97527.09;;;18.00;82.83
5284;BME280;15377;48.540;9.268;2024-02-16T11:21:15;97531.72;;;17.92;84.60
5284;BME280;15377;48.540;9.268;2024-02-16T11:23:41;97525.16;;;18.19;86.52
5284;BME280;15377;48.540;9.268;2024-02-16T11:26:11;97520.41;;;18.14;86.60
5284;BME280;15377;48.540;9.268;2024-02-16T11:28:37;97527.00;;;18.11;84.98
5284;BME280;15377;48.540;9.268;2024-02-16T11:31:03;97512.56;;;18.13;88.10
5284;BME280;15377;48.540;9.268;2024-02-16T11:33:29;97528.03;;;18.08;87.52
5284;BME280;15377;48.540;9.268;2024-02-16T11:38:21;97535.13;;;18.09;89.12
5284;BME280;15377;48.540;9.268;2024-02-16T11:41:02;97531.16;;;17.99;88.62
5284;BME280;15377;48.540;9.268;2024-02-16T11:43:27;97518.88;;;18.13;90.70
5284;BME280;15377;48.540;9.268;2024-02-16T11:45:53;97521.66;;;18.13;89.36
5284;BME280;15377;48.540;9.268;2024-02-16T11:48:23;97527.59;;;17.99;90.17
5284;BME280;15377;48.540;9.268;2024-02-16T11:51:03;97523.63;;;17.89;90.83
5284;BME280;15377;48.540;9.268;2024-02-16T11:53:29;97525.66;;;17.88;90.76
5284;BME280;15377;48.540;9.268;2024-02-16T11:55:55;97530.53;;;17.77;90.05
5284;BME280;15377;48.540;9.268;2024-02-16T11:58:20;97529.66;;;17.98;91.97
5284;BME280;15377;48.540;9.268;2024-02-16T12:00:47;97522.25;;;18.01;90.87
5284;BME280;15377;48.540;9.268;2024-02-16T12:05:57;97523.25;;;18.03;90.06
5284;BME280;15377;48.540;9.268;2024-02-16T12:08:23;97524.34;;;17.95;89.95
5284;BME280;15377;48.540;9.268;2024-02-16T12:10:50;97525.59;;;17.99;90.30
5284;BME280;15377;48.540;9.268;2024-02-16T12:13:17;97527.28;;;18.08;90.54
5284;BME280;15377;48.540;9.268;2024-02-16T12:15:44;97514.16;;;18.03;90.39
5284;BME280;15377;48.540;9.268;2024-02-16T12:18:10;97524.69;;;18.15;91.59
5284;BME280;15377;48.540;9.268;2024-02-16T12:20:36;97510.00;;;18.15;91.55
5284;BME280;15377;48.540;9.268;2024-02-16T12:23:10;97524.03;;;18.04;91.12
5284;BME280;15377;48.540;9.268;2024-02-16T12:25:36;97531.63;;;18.03;91.93
5284;BME280;15377;48.540;9.268;2024-02-16T12:28:02;97529.81;;;18.06;92.41
5284;BME280;15377;48.540;9.268;2024-02-16T12:30:28;97530.09;;;18.02;90.87
5284;BME280;15377;48.540;9.268;2024-02-16T12:32:53;97534.28;;;18.20;93.15
5284;BME280;15377;48.540;9.268;2024-02-16T12:35:18;97525.47;;;18.10;92.60
5284;BME280;15377;48.540;9.268;2024-02-16T12:37:45;97536.44;;;18.03;91.89
5284;BME280;15377;48.540;9.268;2024-02-16T12:40:10;97533.38;;;18.06;92.10
5284;BME280;15377;48.540;9.268;2024-02-16T12:42:36;97533.59;;;18.08;93.22
5284;BME280;15377;48.540;9.268;2024-02-16T12:45:03;97540.97;;;18.06;93.55
5284;BME280;15377;48.540;9.268;2024-02-16T12:47:28;97546.59;;;18.00;93.08
5284;BME280;15377;48.540;9.268;2024-02-16T12:49:56;97534.88;;;18.07;93.17
5284;BME280;15377;48.540;9.268;2024-02-16T12:52:22;97540.19;;;18.11;94.13
5284;BME280;15377;48.540;9.268;2024-02-16T12:54:48;97543.69;;;18.11;94.26
5284;BME280;15377;48.540;9.268;2024-02-16T12:57:13;97540.19;;;18.05;94.36
5284;BME280;15377;48.540;9.268;2024-02-16T12:59:38;97536.00;;;17.93;94.34
5284;BME280;15377;48.540;9.268;2024-02-16T13:02:04;97533.69;;;17.97;95.09
5284;BME280;15377;48.540;9.268;2024-02-16T13:04:29;97541.16;;;18.13;95.73
5284;BME280;15377;48.540;9.268;2024-02-16T13:06:57;97543.63;;;18.22;95.33
5284;BME280;15377;48.540;9.268;2024-02-16T13:09:22;97535.97;;;18.28;96.10